sensor_id;sensor_type;location;lat;lon;timestamp;pressure;altitude;pressure_sealevel;temperature;humidity
73105;BME280;61296;50.526;30.792;2022-09-16T00:01:51;97964.97;;;14.60;99.33
73105;BME280;61296;50.526;30.792;2022-09-16T00:17:11;98038.66;;;15.09;98.90
73105;BME280;61296;50.526;30.792;2022-09-16T00:32:30;97946.28;;;14.35;98.14
73105;BME280;61296;50.526;30.792;2022-09-16T00:47:52;97969.94;;;14.53;98.67
73105;BME280;61296;50.526;30.792;2022-09-16T01:03:14;98046.59;;;14.81;98.50
73105;BME280;61296;50.526;30.792;2022-09-16T01:34:44;98061.41;;;14.46;99.86
73105;BME280;61296;50.526;30.792;2022-09-16T01:50:18;98028.19;;;14.16;100.00
73105;BME280;61296;50.526;30.792;2022-09-16T02:05:49;98097.53;;;14.55;99.54
73105;BME280;61296;50.526;30.792;2022-09-16T02:21:12;98018.44;;;14.12;98.82
73105;BME280;61296;50.526;30.792;2022-09-16T02:36:34;98053.44;;;14.02;98.31
73105;BME280;61296;50.526;30.792;2022-09-16T03:07:24;98110.34;;;14.16;97.82
73105;BME280;61296;50.526;30.792;2022-09-16T03:38:07;98058.31;;;13.66;97.33
73105;BME280;61296;50.526;30.792;2022-09-16T03:53:29;98094.38;;;13.75;97.55
73105;BME280;61296;50.526;30.792;2022-09-16T04:08:48;98103.56;;;13.88;97.84
73105;BME280;61296;50.526;30.792;2022-09-16T04:24:09;98028.72;;;13.14;98.32
73105;BME280;61296;50.526;30.792;2022-09-16T04:39:29;98146.81;;;13.78;98.39
73105;BME280;61296;50.526;30.792;2022-09-16T04:54:49;98146.34;;;13.47;99.10
73105;BME280;61296;50.526;30.792;2022-09-16T05:10:08;98166.88;;;13.63;99.05
73105;BME280;61296;50.526;30.792;2022-09-16T05:25:28;98129.13;;;13.40;98.47
73105;BME280;61296;50.526;30.792;2022-09-16T05:40:47;98173.16;;;13.83;98.07
73105;BME280;61296;50.526;30.792;2022-09-16T05:56:11;98195.91;;;14.07;97.58
73105;BME280;61296;50.526;30.792;2022-09-16T06:11:31;98160.44;;;13.85;96.54
73105;BME280;61296;50.526;30.792;2022-09-16T06:26:53;98145.25;;;13.94;96.00
73105;BME280;61296;50.526;30.792;2022-09-16T06:42:13;98162.28;;;14.25;95.41
73105;BME280;61296;50.526;30.792;2022-09-16T06:57:32;98197.78;;;14.59;94.25
73105;BME280;61296;50.526;30.792;2022-09-16T07:12:53;98236.72;;;14.97;93.13
73105;BME280;61296;50.526;30.792;2022-09-16T07:28:11;98255.25;;;15.29;91.85
73105;BME280;61296;50.526;30.792;2022-09-16T07:43:30;98252.56;;;15.54;90.35
73105;BME280;61296;50.526;30.792;2022-09-16T07:58:50;98256.31;;;16.02;87.13
73105;BME280;61296;50.526;30.792;2022-09-16T08:14:10;98244.00;;;16.41;84.92
73105;BME280;61296;50.526;30.792;2022-09-16T08:29:39;98242.28;;;16.82;82.44
73105;BME280;61296;50.526;30.792;2022-09-16T09:00:53;98206.41;;;17.53;75.05
73105;BME280;61296;50.526;30.792;2022-09-16T09:48:03;98269.78;;;18.52;65.64
73105;BME280;61296;50.526;30.792;2022-09-16T10:03:28;98229.41;;;18.47;64.27
73105;BME280;61296;50.526;30.792;2022-09-16T10:19:01;98273.94;;;19.24;63.12
73105;BME280;61296;50.526;30.792;2022-09-16T10:34:35;98285.56;;;19.41;62.06
73105;BME280;61296;50.526;30.792;2022-09-16T10:50:01;98275.22;;;19.59;59.29
73105;BME280;61296;50.526;30.792;2022-09-16T11:36:31;98291.59;;;19.85;57.20
73105;BME280;61296;50.526;30.792;2022-09-16T12:07:40;98299.91;;;20.12;54.98
73105;BME280;61296;50.526;30.792;2022-09-16T12:23:13;98308.72;;;20.11;56.24
73105;BME280;61296;50.526;30.792;2022-09-16T12:38:35;98296.69;;;19.86;54.34
73105;BME280;61296;50.526;30.792;2022-09-16T13:09:38;98262.94;;;19.66;54.33
73105;BME280;61296;50.526;30.792;2022-09-16T13:25:08;98304.47;;;19.64;55.70
73105;BME280;61296;50.526;30.792;2022-09-16T13:40:29;98330.78;;;19.54;56.41
73105;BME280;61296;50.526;30.792;2022-09-16T13:55:49;98323.81;;;19.40;55.78
73105;BME280;61296;50.526;30.792;2022-09-16T14:11:23;98331.84;;;19.20;55.45
73105;BME280;61296;50.526;30.792;2022-09-16T14:26:51;98335.53;;;18.98;54.45
73105;BME280;61296;50.526;30.792;2022-09-16T14:42:16;98312.56;;;18.67;55.19
73105;BME280;61296;50.526;30.792;2022-09-16T14:57:37;98306.22;;;18.66;55.73
73105;BME280;61296;50.526;30.792;2022-09-16T15:12:59;98329.19;;;18.58;56.43
73105;BME280;61296;50.526;30.792;2022-09-16T15:28:19;98335.81;;;18.51;57.62
73105;BME280;61296;50.526;30.792;2022-09-16T15:43:41;98333.28;;;18.13;56.93
73105;BME280;61296;50.526;30.792;2022-09-16T15:59:05;98343.22;;;17.70;49.92
73105;BME280;61296;50.526;30.792;2022-09-16T16:14:38;98330.53;;;17.13;49.16
73105;BME280;61296;50.526;30.792;2022-09-16T16:29:58;98353.88;;;16.64;49.97
73105;BME280;61296;50.526;30.792;2022-09-16T16:45:17;98375.06;;;16.45;51.09
73105;BME280;61296;50.526;30.792;2022-09-16T17:00:38;98349.50;;;16.00;52.63
73105;BME280;61296;50.526;30.792;2022-09-16T17:15:58;98374.78;;;15.73;54.47
73105;BME280;61296;50.526;30.792;2022-09-16T17:31:20;98407.38;;;15.69;55.47
73105;BME280;61296;50.526;30.792;2022-09-16T17:46:42;98415.44;;;15.47;56.53
73105;BME280;61296;50.526;30.792;2022-09-16T18:02:02;98424.63;;;15.27;57.19
73105;BME280;61296;50.526;30.792;2022-09-16T18:17:21;98426.09;;;14.99;58.35
73105;BME280;61296;50.526;30.792;2022-09-16T18:32:41;98381.63;;;14.74;58.83
73105;BME280;61296;50.526;30.792;2022-09-16T18:48:00;98406.63;;;14.70;60.03
73105;BME280;61296;50.526;30.792;2022-09-16T19:03:19;98364.34;;;14.14;61.76
73105;BME280;61296;50.526;30.792;2022-09-16T19:18:42;98450.41;;;14.56;63.51
73105;BME280;61296;50.526;30.792;2022-09-16T19:34:01;98355.91;;;13.65;65.00
73105;BME280;61296;50.526;30.792;2022-09-16T19:49:21;98422.19;;;13.85;65.97
73105;BME280;61296;50.526;30.792;2022-09-16T20:04:41;98430.97;;;13.60;67.38
73105;BME280;61296;50.526;30.792;2022-09-16T20:20:00;98486.63;;;13.58;68.62
73105;BME280;61296;50.526;30.792;2022-09-16T20:35:20;98498.03;;;13.37;69.58
73105;BME280;61296;50.526;30.792;2022-09-16T20:50:39;98465.28;;;12.85;70.22
73105;BME280;61296;50.526;30.792;2022-09-16T21:06:03;98474.75;;;12.84;70.53
73105;BME280;61296;50.526;30.792;2022-09-16T21:21:24;98505.41;;;12.90;70.87
73105;BME280;61296;50.526;30.792;2022-09-16T21:36:43;98561.41;;;13.17;70.88
73105;BME280;61296;50.526;30.792;2022-09-16T21:52:03;98503.06;;;12.88;70.86
73105;BME280;61296;50.526;30.792;2022-09-16T22:07:23;98561.81;;;13.19;71.08
73105;BME280;61296;50.526;30.792;2022-09-16T22:22:42;98568.31;;;13.02;72.18
73105;BME280;61296;50.526;30.792;2022-09-16T22:38:03;98507.22;;;12.42;72.90
73105;BME280;61296;50.526;30.792;2022-09-16T22:53:22;98552.16;;;12.70;73.53
73105;BME280;61296;50.526;30.792;2022-09-16T23:08:43;98502.28;;;12.57;73.38
73105;BME280;61296;50.526;30.792;2022-09-16T23:24:07;98486.31;;;12.45;73.61
73105;BME280;61296;50.526;30.792;2022-09-16T23:39:26;98519.69;;;12.54;73.61
73105;BME280;61296;50.526;30.792;2022-09-16T23:54:46;98526.53;;;12.39;74.37
